Donner Trail Elementary, Kingvale, California Weather observations

Data are for observation ending at time listed.
 Day   Time    Ave.   Ave.  Ave.  Vector   Max.   Stn.    Total    Solar   Ave.   Snow 
  of    of     Air    Rel.  Wind   Wind    Wind   Baro.  Precip.   Rad.    Soil   Depth
Year   Day     Temp.  Hum.  Speed  Dir.    Gust   Pres.                    Temp.       
2014   (PST)    F      %     mph   deg.    mph     mb.     in.     W/m2     F      in. 
---------------------------------------------------------------------------------------  
 232   16:00   66.2    28    2.1   134      2.1   815.2    0.00     425    999.0  212.2
 232   16:10   65.4    29    2.1    98      2.1   815.3    0.00     414    999.0  212.2
 232   16:20   64.7    29    2.1    83      2.1   815.3    0.00     365    999.0  212.2
 232   16:30   63.8    30    2.1    68      2.1   815.4    0.00     345    999.0  212.2
 232   16:40   63.5    30    2.1    88      2.1   815.5    0.00     297    999.0  212.2
 232   16:50   63.4    30    2.1    70      2.1   815.4    0.00     276    999.0  212.2
 232   17:00   64.1    29    2.1    60      2.1   815.3    0.00     234    999.0  212.2
 232   17:10   63.0    30    2.1    51      2.1   815.3    0.00     207    999.0  212.2
 232   17:20   61.0    32    2.1    20      2.1   815.4    0.00     166    999.0  212.2
 232   17:30   58.4    35    2.1     4      2.1   815.4    0.00      44    999.0  212.2
 232   17:40   57.3    37    2.1    17      2.1   815.3    0.00       0    999.0  212.2
 232   17:50   56.6    38    2.1    51      2.1   815.3    0.00       0    999.0  212.2
 232   18:00   55.7    40    2.1    68      2.1   815.4    0.00       0    999.0  212.2
 232   18:10   54.8    42    2.1    86      2.1   815.5    0.00       0    999.0  212.2
 232   18:20   54.0    44    2.1    86      2.1   815.5    0.00       0    999.0  212.2
 232   18:30   52.8    47    2.1    34      2.1   815.5    0.00       0    999.0  212.2
 232   18:40   51.7    49    2.1   332      2.1   815.6    0.00       0    999.0  212.2
 232   18:50   50.8    51    2.1   332      2.1   815.9    0.00       0    999.0  212.2
 232   19:00   49.9    53    2.1   332      2.1   815.9    0.00       0    999.0  212.2
 232   19:10   48.9    55    2.1   332      2.1   816.0    0.00       0    999.0  212.2
 232   19:20   48.1    57    2.1   332      2.1   816.1    0.00       0    999.0  212.2
 232   19:30   47.3    60    2.1   332      2.1   816.2    0.00       0    999.0  212.2
 232   19:40   46.4    61    2.1   332      2.1   816.3    0.00       0    999.0  212.2
 232   19:50   45.7    62    2.1   332      2.1   816.4    0.00       0    999.0  212.2
 232   20:00   45.2    66    2.1   332      2.1   816.4    0.00       0    999.0  212.2
 232   20:10   44.6    67    2.1   332      2.1   816.5    0.00       0    999.0  212.2
 232   20:20   44.0    67    2.1   332      2.1   816.5    0.00       0    999.0  212.2
 232   20:30   43.7    68    2.1   332      2.1   816.6    0.00       0    999.0  212.2
 232   20:40   43.5    69    2.1   331      2.1   816.7    0.00       0    999.0  212.2
 232   20:50   43.2    70    2.1   336      2.1   816.7    0.00       0    999.0  212.2
 232   21:00   42.9    71    2.1   336      2.1   816.7    0.00       0    999.0  212.2
 232   21:10   42.3    72    2.1   336      2.1   816.8    0.00       0    999.0  212.2
 232   21:20   41.7    73    2.1   333      2.1   816.8    0.00       0    999.0  212.2
 232   21:30   41.5    74    2.1   295      2.1   816.8    0.00       0    999.0  212.2
 232   21:40   41.4    75    2.1   277      2.1   816.8    0.00       0    999.0  212.2
 232   21:50   41.2    75    2.1   278      2.1   816.8    0.00       0    999.0  212.2
 232   22:00   40.7    75    2.1   278      2.1   816.8    0.00       0    999.0  212.2
 232   22:10   40.4    76    2.1   278      2.1   816.8    0.00       0    999.0  212.2
 232   22:20   40.4    77    2.1   278      2.1   816.9    0.00       0    999.0  212.2
 232   22:30   40.1    77    2.1   280      2.1   817.0    0.00       0    999.0  212.2
 232   22:40   39.8    78    2.1   288      2.1   817.0    0.00       0    999.0  212.2
 232   22:50   39.4    78    2.1   289      2.1   816.9    0.00       0    999.0  212.2
 232   23:00   39.1    80    2.1   292      2.1   816.9    0.00       0    999.0  212.2
 232   23:10   38.9    81    2.1   292      2.1   817.0    0.00       0    999.0  212.2
 232   23:20   38.7    81    2.1   292      2.1   817.0    0.00       0    999.0  212.2
 232   23:30   38.5    82    2.1   293      2.1   817.0    0.00       0    999.0  212.2
 232   23:40   38.4    83    2.1   292      2.1   817.0    0.00       0    999.0  212.2
 232   23:50   38.2    83    2.1   257      2.1   817.0    0.00       0    999.0  212.2
 233    0:00   38.1    84    2.1   265      2.1   816.9    0.00       0    999.0  212.2
 233    0:10   37.8    84    2.1   276      2.1   816.9    0.00       0    999.0  212.2
 233    0:20   37.5    85    2.1   271      2.1   817.0    0.00       0    999.0  212.2
 233    0:30   37.4    86    2.1   256      2.1   816.9    0.00       0    999.0  212.2
 233    0:40   37.2    86    2.1   295      2.1   816.9    0.00       0    999.0  212.2
 233    0:50   37.0    86    2.1   269      2.1   816.9    0.00       0    999.0  212.2
 233    1:00   36.9    86    2.1   302      2.1   816.9    0.00       0    999.0  212.2
 233    1:10   36.8    86    2.1   263      2.1   816.9    0.00       0    999.0  212.2
 233    1:20   36.6    87    2.1   287      2.1   816.9    0.00       0    999.0  212.2
 233    1:30   36.4    87    2.1   292      2.1   816.9    0.00       0    999.0  212.2
 233    1:40   36.3    87    2.1   270      2.1   816.9    0.00       0    999.0  212.2
 233    1:50   36.1    88    2.1   268      2.1   816.9    0.00       0    999.0  212.2
 233    2:00   35.9    88    2.1   268      2.1   816.9    0.00       0    999.0  212.2
 233    2:10   35.7    87    2.1   270      2.1   817.0    0.00       0    999.0  212.2
 233    2:20   35.5    88    2.1   295      2.1   816.9    0.00       0    999.0  212.2
 233    2:30   35.4    88    2.1   293      2.1   816.9    0.00       0    999.0  212.2
 233    2:40   35.2    88    2.1   277      2.1   816.9    0.00       0    999.0  212.2
 233    2:50   35.1    88    2.1   270      2.1   816.9    0.00       0    999.0  212.2
 233    3:00   34.9    88    2.1   276      2.1   816.8    0.00       0    999.0  212.2
 233    3:10   34.8    89    2.1   270      2.1   816.8    0.00       0    999.0  212.2
 233    3:20   34.6    88    2.1   270      2.1   816.8    0.00       0    999.0  212.2
 233    3:30   34.4    88    2.1   277      2.1   816.8    0.00       0    999.0  212.2
 233    3:40   34.2    89    2.1   269      2.1   816.8    0.00       0    999.0  212.2
 233    3:50   34.1    89    2.1   288      2.1   816.8    0.00       0    999.0  212.2
 233    4:00   34.0    90    2.1   286      2.1   816.7    0.00       0    999.0  212.2
 233    4:10   33.9    90    2.1   290      2.1   816.8    0.00       0    999.0  212.2
 233    4:20   33.9    90    2.1   261      2.1   816.7    0.00       0    999.0  212.2
 233    4:30   33.9    90    2.1   280      2.1   816.7    0.00       0    999.0  212.2
 233    4:40   33.7    90    2.1   273      2.1   816.7    0.00       0    999.0  212.2
 233    4:50   33.5    90    2.1   273      2.1   816.8    0.00       0    999.0  212.2
 233    5:00   33.4    91    2.1   272      2.1   816.9    0.00       0    999.0  212.2
 233    5:10   33.5    91    2.1   274      2.1   817.0    0.00       0    999.0  212.2
 233    5:20   33.6    92    2.1   262      2.1   817.1    0.00      15    999.0  212.2
 233    5:30   33.8    92    2.1   266      2.1   817.1    0.00      45    999.0  212.2
 233    5:40   34.3    92    2.1   254      2.1   817.2    0.00     101    999.0  212.2
 233    5:50   34.9    91    2.1   254      2.1   817.3    0.00     138    999.0  212.2
 233    6:00   35.8    90    2.1   259      2.1   817.3    0.00     160    999.0  212.2
 233    6:10   37.0    89    2.1   255      2.1   817.4    0.00     207    999.0  212.2
 233    6:20   37.9    88    2.1   248      2.1   817.4    0.00     216    999.0  212.2
 233    6:30   39.5    87    2.1   252      2.1   817.4    0.00     272    999.0  212.2
 233    6:40   41.0    83    2.1   253      2.1   817.5    0.00     280    999.0  212.2
 233    6:50   42.7    77    2.1   256      2.1   817.4    0.00     338    999.0  212.2
 233    7:00   44.6    73    2.1   252      2.1   817.5    0.00     353    999.0  212.2
 233    7:10   46.4    69    2.1   251      2.1   817.5    0.00     411    999.0  212.2
 233    7:20   48.3    64    2.1   276      2.1   817.5    0.00     425    999.0  212.2
 233    7:30   50.5    60    2.1   192      2.1   817.5    0.00     481    999.0  212.2
 233    7:40   52.2    56    2.1   117      2.1   817.5    0.00     484    999.0  212.2
 233    7:50   54.1    45    2.1   109      2.1   817.5    0.00     516    999.0  212.2
 233    8:00   55.6    42    2.1   107      2.1   817.6    0.00     524    999.0  212.2
 233    8:10   56.8    38    2.1    86      2.1   817.7    0.00     580    999.0  212.2
 233    8:20   57.2    35    2.1    75      2.1   817.8    0.00     587    999.0  212.2
 233    8:30   57.4    33    2.1    51      2.1   817.9    0.00     642    999.0  212.2
 233    8:40   57.9    32    2.1    59      2.1   818.0    0.00     655    999.0  212.2
 233    8:50   58.2    34    2.1    85      2.1   818.0    0.00     670    999.0  212.2
 233    9:00   58.8    32    2.1    15      2.1   818.0    0.00     722    999.0  212.2
 233    9:10   59.1    33    2.1    18      2.1   818.0    0.00     724    999.0  212.2
 233    9:20   59.8    32    2.1   236      2.1   818.0    0.00     755    999.0  212.2
 233    9:30   60.1    31    2.1    44      2.1   818.0    0.00     793    999.0  212.2
 233    9:40   59.9    31    2.1    11      2.1   818.0    0.00     793    999.0  212.2
 233    9:50   60.9    30    2.1     8      2.1   818.0    0.00     793    999.0  212.2
 233   10:00   60.9    31    2.1    27      2.1   818.0    0.00     797    999.0  212.2
 233   10:10   62.3    30    2.1   210      2.1   818.0    0.00     848    999.0  212.2
 233   10:20   63.4    29    2.1   241      2.1   817.9    0.00     862    999.0  212.2
 233   10:30   62.9    29    2.1   104      2.1   817.9    0.00     862    999.0  212.2
 233   10:40   62.5    28    2.1    41      2.1   818.0    0.00     862    999.0  212.2
 233   10:50   63.7    28    2.1     7      2.1   817.9    0.00     862    999.0  212.2
 233   11:00   64.2    26    2.1    90      2.1   817.9    0.00     862    999.0  212.2
 233   11:10   64.7    25    2.1    32      2.1   817.8    0.00     867    999.0  212.2
 233   11:20   65.8    25    2.1     0      2.1   817.9    0.00     877    999.0  212.2
 233   11:30   66.4    24    2.1   310      2.1   817.9    0.00     889    999.0  212.2
 233   11:40   67.7    22    2.1   336      2.1   817.8    0.00     891    999.0  212.2
 233   11:50   66.2    23    2.1    64      2.1   817.9    0.00     882    999.0  212.2
 233   12:00   65.5    23    2.1    36      2.1   817.9    0.00     873    999.0  212.2
 233   12:10   65.8    23    2.1    59      2.1   818.0    0.00     864    999.0  212.2
 233   12:20   66.2    24    2.1    43      2.1   817.9    0.00     862    999.0  212.2
 233   12:30   66.8    24    2.1    49      2.1   817.9    0.00     862    999.0  212.2
 233   12:40   66.0    26    2.1    50      2.1   817.8    0.00     862    999.0  212.2
 233   12:50   65.7    27    2.1    48      2.1   817.7    0.00     862    999.0  212.2
 233   13:00   66.4    26    2.1    87      2.1   817.7    0.00     859    999.0  212.2
 233   13:10   65.9    27    2.1    67      2.1   817.7    0.00     822    999.0  212.2
 233   13:20   65.5    28    2.1    68      2.1   817.6    0.00     793    999.0  212.2
 233   13:30   66.4    27    2.1    48      2.1   817.6    0.00     793    999.0  212.2
 233   13:40   65.8    28    2.1   105      2.1   817.6    0.00     775    999.0  212.2
 233   13:50   65.3    28    2.1    54      2.1   817.5    0.00     699    999.0  212.2
 233   14:00   65.4    28    2.1    71      2.1   817.5    0.00     713    999.0  212.2
 233   14:10   66.1    26    2.1   100      2.1   817.5    0.00     720    999.0  212.2
 233   14:20   65.9    26    2.1    68      2.1   817.5    0.00     673    999.0  212.2
 233   14:30   65.8    25    2.1    70      2.1   817.5    0.00     655    999.0  212.2
 233   14:40   65.3    26    2.1    80      2.1   817.4    0.00     654    999.0  212.2
 233   14:50   66.0    26    2.1    96      2.1   817.4    0.00     598    999.0  212.2
 233   15:00   65.9    27    2.1    52      2.1   817.5    0.00     586    999.0  212.2
 233   15:10   66.2    28    2.1    90      2.1   817.4    0.00     549    999.0  212.2
 233   15:20   66.4    27    2.1    61      2.1   817.4    0.00     517    999.0  212.2
 233   15:30   66.2    27    2.1    81      2.1   817.4    0.00     511    999.0  212.2
 233   15:40   64.8    28    2.1    62      2.1   817.4    0.00     483    999.0  212.2
 233   15:50   65.6    27    2.1    77      2.1   817.3    0.00     482    999.0  212.2

Return to Donner Trail Elementary graphs page.


Western Regional Climate Center,wrcc@dri.edu